Time;durP1;ratioP1;P1;durP2;ratioP2;P2;SDS_P1;SDS_P2;PMS_P1;PMS_P2;Temp;Humidity;BMP_temperature;BMP_pressure;BME280_temperature;BME280_humidity;BME280_pressure;Samples;Min_cycle;Max_cycle;Signal;HPM_P1;HPM_P2
2023/08/30 00:01:56;;;;;;;26.00;13.50;;;;;;;23.67;58.01;98043.03;109098;1257;76797;-24
2023/08/30 00:04:24;;;;;;;21.40;13.10;;;;;;;23.62;58.23;98039.69;109100;1256;72765;-24
2023/08/30 00:06:52;;;;;;;35.00;19.90;;;;;;;23.58;58.42;98040.20;109136;1256;58828;-24
2023/08/30 00:09:19;;;;;;;31.80;17.70;;;;;;;23.54;58.57;98039.11;109086;1261;60900;-24
2023/08/30 00:11:47;;;;;;;27.60;16.20;;;;;;;23.51;58.73;98035.95;109105;1257;76166;-24
2023/08/30 00:14:15;;;;;;;23.00;14.30;;;;;;;23.48;58.80;98035.88;109076;1257;75266;-24
2023/08/30 00:16:43;;;;;;;20.30;13.00;;;;;;;23.44;59.10;98036.03;109120;1257;75040;-24
2023/08/30 00:19:11;;;;;;;22.30;11.90;;;;;;;23.40;59.35;98035.10;109105;1257;62031;-24
2023/08/30 00:21:39;;;;;;;18.40;12.30;;;;;;;23.35;59.30;98035.31;109038;1257;60965;-24
2023/08/30 00:24:07;;;;;;;26.50;19.70;;;;;;;23.31;59.48;98037.84;109087;1257;72706;-24
2023/08/30 00:26:35;;;;;;;57.60;41.50;;;;;;;23.27;59.52;98034.83;109047;1257;75384;-24
2023/08/30 00:29:03;;;;;;;47.30;34.40;;;;;;;23.24;59.58;98036.67;109069;1258;76394;-24
2023/08/30 00:31:31;;;;;;;30.00;20.10;;;;;;;23.21;59.89;98033.77;109076;1257;63454;-24
2023/08/30 00:33:59;;;;;;;19.90;14.40;;;;;;;23.18;59.98;98033.02;109107;1258;62088;-24
2023/08/30 00:36:27;;;;;;;21.20;15.10;;;;;;;23.15;60.07;98038.54;109113;1257;75022;-24
2023/08/30 00:38:55;;;;;;;13.00;9.60;;;;;;;23.12;60.29;98036.70;109037;1257;77263;-24
2023/08/30 00:41:23;;;;;;;11.80;9.20;;;;;;;23.09;60.34;98034.77;108995;1257;76313;-24
2023/08/30 00:43:51;;;;;;;17.80;10.00;;;;;;;23.05;60.62;98033.56;108950;1257;62301;-24
2023/08/30 00:46:19;;;;;;;12.50;9.50;;;;;;;23.01;60.72;98037.46;109030;1263;60069;-24
2023/08/30 00:48:47;;;;;;;16.40;9.20;;;;;;;22.97;60.79;98039.83;109109;1259;77252;-24
2023/08/30 00:51:15;;;;;;;14.10;8.40;;;;;;;22.93;60.95;98038.40;108940;1257;75948;-24
2023/08/30 00:53:43;;;;;;;21.00;8.70;;;;;;;22.89;61.13;98041.77;108993;1257;71495;-24
2023/08/30 00:56:11;;;;;;;18.50;9.10;;;;;;;22.85;61.48;98038.44;109023;1260;63087;-24
2023/08/30 00:58:39;;;;;;;13.80;8.90;;;;;;;22.82;61.61;98035.64;106906;1257;2856123;-24
2023/08/30 01:01:08;;;;;;;15.10;9.00;;;;;;;22.77;61.62;98031.02;109032;1257;77254;-24
2023/08/30 01:03:37;;;;;;;13.40;9.10;;;;;;;22.73;61.91;98032.75;109104;1257;73191;-24
2023/08/30 01:06:05;;;;;;;13.10;9.80;;;;;;;22.70;61.92;98030.35;109028;1257;75200;-24
2023/08/30 01:08:34;;;;;;;12.90;8.80;;;;;;;22.68;62.06;98031.77;109006;1257;63690;-24
2023/08/30 01:11:07;;;;;;;12.90;8.70;;;;;;;22.65;62.28;98029.41;108886;1264;60221;-24
2023/08/30 01:13:39;;;;;;;13.40;8.80;;;;;;;22.60;62.40;98031.89;109020;1257;75128;-24
2023/08/30 01:16:07;;;;;;;14.50;8.80;;;;;;;22.57;62.53;98029.65;108982;1257;76389;-24
2023/08/30 01:18:36;;;;;;;14.80;9.10;;;;;;;22.55;62.75;98034.63;108897;1260;71816;-24
2023/08/30 01:21:10;;;;;;;14.50;9.70;;;;;;;22.52;62.75;98035.38;108936;1259;62340;-24
2023/08/30 01:24:10;;;;;;;15.60;9.90;;;;;;;22.49;62.93;98037.91;108930;1260;60716;-24
2023/08/30 01:27:14;;;;;;;24.60;11.40;;;;;;;22.46;63.25;98040.20;108922;1259;76116;-24
2023/08/30 01:29:45;;;;;;;16.30;11.20;;;;;;;22.40;63.37;98044.98;109029;1260;72916;-24
2023/08/30 01:32:15;;;;;;;17.30;11.50;;;;;;;22.36;63.44;98047.94;108844;1260;72790;-24
2023/08/30 01:34:46;;;;;;;14.60;10.40;;;;;;;22.32;63.60;98047.50;108811;1264;58878;-24
2023/08/30 01:37:16;;;;;;;17.20;11.30;;;;;;;22.29;63.89;98043.36;108913;1258;59050;-24
2023/08/30 01:39:47;;;;;;;14.20;9.80;;;;;;;22.25;63.93;98044.05;108928;1260;73919;-24
2023/08/30 01:42:21;;;;;;;14.60;9.90;;;;;;;22.23;64.08;98042.95;108954;1259;73273;-24
2023/08/30 01:44:54;;;;;;;21.20;10.30;;;;;;;22.20;64.47;98048.32;108980;1260;75381;-24
2023/08/30 01:47:25;;;;;;;21.90;11.10;;;;;;;22.16;64.50;98050.13;108919;1260;60949;-24
2023/08/30 01:49:55;;;;;;;15.80;10.60;;;;;;;22.13;64.56;98052.81;109049;1259;63397;-24
2023/08/30 01:52:26;;;;;;;13.50;10.40;;;;;;;22.10;64.60;98051.30;108930;1259;77017;-24
2023/08/30 01:54:56;;;;;;;16.90;10.30;;;;;;;22.07;64.85;98053.61;108965;1259;74460;-24
2023/08/30 01:57:26;;;;;;;13.30;10.00;;;;;;;22.04;64.75;98054.86;108843;1260;72754;-24
2023/08/30 01:59:57;;;;;;;13.50;10.40;;;;;;;22.01;65.04;98053.52;108920;1260;60154;-24
2023/08/30 02:02:30;;;;;;;13.40;6.80;;;;;;;22.01;65.55;98051.48;108822;1259;58841;-24
2023/08/30 02:05:00;;;;;;;11.50;7.90;;;;;;;22.58;64.81;98050.36;108917;1260;74024;-24
2023/08/30 02:07:47;;;;;;;10.50;7.40;;;;;;;23.21;62.89;98047.42;108851;1260;73276;-24
2023/08/30 02:10:22;;;;;;;12.60;8.80;;;;;;;23.38;61.91;98047.70;108942;1260;75182;-24
2023/08/30 02:12:53;;;;;;;17.60;9.60;;;;;;;23.29;61.72;98042.25;108905;1260;63430;-24
2023/08/30 02:15:24;;;;;;;16.40;9.60;;;;;;;23.15;61.84;98045.73;108859;1260;58844;-24
2023/08/30 02:24:04;;;;;;;17.40;9.60;;;;;;;22.66;62.94;98036.34;102658;1293;600158;-22
2023/08/30 02:26:32;;;;;;;17.50;10.10;;;;;;;22.51;63.19;98034.55;104820;1270;61172;-22
2023/08/30 02:29:00;;;;;;;13.70;8.20;;;;;;;22.39;63.70;98032.59;104824;1272;63051;-22
2023/08/30 02:31:28;;;;;;;11.40;8.60;;;;;;;22.29;63.85;98038.05;104800;1280;74835;-22
2023/08/30 02:33:56;;;;;;;11.40;9.00;;;;;;;22.19;64.05;98036.59;105381;1265;77287;-22
2023/08/30 02:36:24;;;;;;;14.70;9.50;;;;;;;22.11;64.64;98040.32;105335;1260;75192;-22
2023/08/30 02:38:52;;;;;;;13.50;9.30;;;;;;;22.04;64.80;98034.67;103373;1259;3048391;-23
2023/08/30 02:41:20;;;;;;;16.50;9.20;;;;;;;21.97;64.95;98035.66;105589;1257;61514;-23
2023/08/30 02:43:48;;;;;;;15.00;10.50;;;;;;;21.89;65.09;98038.92;105609;1261;74697;-23
2023/08/30 02:46:16;;;;;;;12.90;7.00;;;;;;;21.84;65.75;98036.15;105625;1260;73211;-23
2023/08/30 02:48:45;;;;;;;12.80;6.70;;;;;;;22.37;65.19;98035.81;105635;1260;76537;-23
2023/08/30 02:51:13;;;;;;;10.50;7.70;;;;;;;22.97;63.39;98032.92;105556;1262;62602;-23
2023/08/30 02:53:41;;;;;;;13.40;8.30;;;;;;;23.10;62.56;98034.47;105560;1262;62654;-23
2023/08/30 02:56:09;;;;;;;15.50;10.00;;;;;;;23.00;62.52;98035.41;105624;1258;72259;-23
2023/08/30 02:58:36;;;;;;;15.70;10.20;;;;;;;22.82;62.79;98037.79;105618;1258;77885;-23
2023/08/30 03:01:05;;;;;;;14.80;9.40;;;;;;;22.65;63.28;98034.34;105573;1260;71431;-23
2023/08/30 03:03:33;;;;;;;14.80;9.80;;;;;;;22.48;63.72;98034.41;105489;1257;61173;-23
2023/08/30 03:06:02;;;;;;;12.90;10.00;;;;;;;22.32;64.10;98041.22;105427;1261;62641;-23
2023/08/30 03:08:32;;;;;;;16.90;10.20;;;;;;;22.19;64.40;98040.22;105375;1263;73119;-23
2023/08/30 03:11:13;;;;;;;28.70;19.50;;;;;;;22.06;64.60;98046.77;105481;1260;73205;-23
2023/08/30 03:13:48;;;;;;;24.20;17.50;;;;;;;21.94;65.41;98044.48;105447;1260;74081;-23
2023/08/30 03:16:17;;;;;;;19.10;14.40;;;;;;;21.83;65.66;98044.29;105575;1260;61652;-23
2023/08/30 03:18:45;;;;;;;18.20;11.90;;;;;;;21.75;65.89;98042.46;105518;1260;61176;-23
2023/08/30 03:21:13;;;;;;;10.80;7.50;;;;;;;21.70;66.21;98042.64;105383;1257;75981;-23
2023/08/30 03:23:41;;;;;;;10.90;7.50;;;;;;;22.23;65.82;98041.23;105561;1262;76498;-23
2023/08/30 03:26:10;;;;;;;12.20;8.20;;;;;;;22.81;64.15;98042.96;105312;1261;74510;-23
2023/08/30 03:28:38;;;;;;;15.40;8.60;;;;;;;22.95;63.36;98043.38;105199;1263;61116;-23
2023/08/30 03:31:16;;;;;;;12.80;9.00;;;;;;;22.88;63.13;98043.66;105182;1264;61212;-23
2023/08/30 03:33:45;;;;;;;16.70;10.50;;;;;;;22.72;63.44;98044.56;105420;1262;73910;-23
2023/08/30 03:36:17;;;;;;;17.70;12.20;;;;;;;22.57;63.87;98048.11;105497;1262;73237;-23
2023/08/30 03:38:45;;;;;;;18.40;12.00;;;;;;;22.43;64.36;98049.20;105192;1266;72703;-23
2023/08/30 03:41:13;;;;;;;17.80;11.90;;;;;;;22.33;64.57;98050.30;105435;1263;61131;-23
2023/08/30 03:43:42;;;;;;;18.10;11.30;;;;;;;22.23;64.77;98046.45;105014;1265;61306;-23
2023/08/30 03:46:11;;;;;;;19.10;14.20;;;;;;;22.17;64.98;98049.83;105315;1264;75879;-23
2023/08/30 03:48:40;;;;;;;22.90;12.70;;;;;;;22.12;65.20;98052.52;105353;1264;78374;-22
2023/08/30 03:51:07;;;;;;;16.60;12.80;;;;;;;22.07;65.60;98053.68;105486;1263;75214;-23
2023/08/30 03:53:35;;;;;;;19.10;10.80;;;;;;;22.07;65.85;98055.27;105343;1263;65540;-23
2023/08/30 03:56:04;;;;;;;15.30;9.80;;;;;;;22.61;65.32;98054.03;105541;1257;61198;-23
2023/08/30 03:58:33;;;;;;;17.50;8.60;;;;;;;23.24;63.65;98054.94;105578;1263;75497;-23
2023/08/30 04:01:01;;;;;;;12.00;8.10;;;;;;;23.43;62.46;98055.02;105583;1258;76700;-23
2023/08/30 04:03:29;;;;;;;11.80;8.10;;;;;;;23.39;62.17;98055.58;105317;1261;75153;-23
2023/08/30 04:05:57;;;;;;;10.10;8.30;;;;;;;23.28;62.44;98058.32;105546;1257;63578;-23
2023/08/30 04:08:25;;;;;;;16.70;8.90;;;;;;;23.14;62.64;98056.03;105442;1258;61134;-23
2023/08/30 04:10:53;;;;;;;15.70;8.80;;;;;;;23.04;62.97;98058.53;105374;1257;73509;-23
2023/08/30 04:13:21;;;;;;;11.90;8.00;;;;;;;22.94;63.31;98056.54;105392;1263;75738;-23
2023/08/30 04:15:49;;;;;;;21.10;9.50;;;;;;;22.88;63.41;98054.52;105369;1258;71560;-22
2023/08/30 04:18:17;;;;;;;10.10;8.00;;;;;;;22.82;63.89;98054.75;105528;1258;62934;-23
2023/08/30 04:20:45;;;;;;;12.80;8.30;;;;;;;22.77;63.70;98055.23;105369;1265;62748;-23
2023/08/30 04:23:14;;;;;;;13.20;8.40;;;;;;;22.74;63.84;98055.31;105716;1254;73180;-23
2023/08/30 04:25:42;;;;;;;13.90;9.50;;;;;;;22.71;64.24;98055.89;105526;1254;73481;-22
2023/08/30 04:28:10;;;;;;;11.70;8.40;;;;;;;22.70;64.14;98051.73;105691;1255;75530;-23
2023/08/30 04:30:38;;;;;;;12.20;8.50;;;;;;;22.72;64.24;98052.36;105554;1260;61636;-23
2023/08/30 04:33:08;;;;;;;12.00;8.30;;;;;;;22.75;64.17;98053.99;105592;1254;61175;-23
2023/08/30 04:35:36;;;;;;;11.90;8.60;;;;;;;22.78;64.00;98052.80;105637;1255;75503;-23
2023/08/30 04:38:04;;;;;;;11.10;6.20;;;;;;;22.84;64.08;98056.70;105613;1260;76762;-23
2023/08/30 04:40:32;;;;;;;10.00;6.10;;;;;;;23.45;63.44;98058.45;105340;1259;74251;-23
2023/08/30 04:43:01;;;;;;;10.40;6.80;;;;;;;24.12;61.27;98055.50;105632;1253;61112;-24
2023/08/30 04:45:29;;;;;;;10.90;6.60;;;;;;;24.35;60.26;98054.14;105694;1259;61186;-23
2023/08/30 04:47:57;;;;;;;10.00;7.20;;;;;;;24.32;59.92;98053.61;105751;1260;71847;-22
2023/08/30 04:50:26;;;;;;;10.20;7.70;;;;;;;24.23;59.93;98049.73;105694;1261;76948;-22
2023/08/30 04:52:54;;;;;;;17.20;9.10;;;;;;;24.12;60.12;98052.10;105636;1254;75119;-22
2023/08/30 04:55:28;;;;;;;15.60;9.00;;;;;;;24.03;60.30;98054.68;105653;1259;61148;-22
2023/08/30 04:57:58;;;;;;;17.10;8.50;;;;;;;23.92;60.71;98056.00;105549;1260;61231;-22
2023/08/30 05:00:31;;;;;;;15.00;8.20;;;;;;;23.86;60.82;98055.30;105676;1258;74354;-22
2023/08/30 05:02:59;;;;;;;10.70;8.40;;;;;;;23.79;60.95;98052.31;105526;1260;73664;-22
2023/08/30 05:05:28;;;;;;;15.10;8.40;;;;;;;23.75;61.18;98055.67;105661;1267;72685;-22
2023/08/30 05:07:58;;;;;;;12.30;8.40;;;;;;;23.72;61.27;98052.85;105574;1255;61109;-22
2023/08/30 05:10:26;;;;;;;10.80;8.20;;;;;;;23.70;61.49;98057.39;105697;1254;61107;-22
2023/08/30 05:12:54;;;;;;;12.40;8.60;;;;;;;23.70;61.38;98055.31;105667;1259;73208;-22
2023/08/30 05:15:22;;;;;;;11.70;8.90;;;;;;;23.71;61.41;98053.25;105687;1253;76759;-22
2023/08/30 05:17:50;;;;;;;12.90;8.80;;;;;;;23.72;61.39;98052.73;105687;1261;72781;-22
2023/08/30 05:20:18;;;;;;;14.70;9.70;;;;;;;23.73;61.63;98052.98;105521;1252;61478;-22
2023/08/30 05:22:49;;;;;;;13.50;8.90;;;;;;;23.74;61.63;98053.27;105596;1253;61419;-22
2023/08/30 05:25:18;;;;;;;16.40;9.00;;;;;;;23.75;61.64;98056.42;105480;1258;75134;-22
2023/08/30 05:27:47;;;;;;;15.50;8.60;;;;;;;23.75;61.52;98055.52;105475;1259;77356;-22
2023/08/30 05:30:16;;;;;;;12.10;8.80;;;;;;;23.75;61.68;98056.27;105367;1257;75206;-22
2023/08/30 05:32:44;;;;;;;13.10;8.80;;;;;;;23.76;61.71;98054.80;105428;1254;62783;-22
2023/08/30 05:35:32;;;;;;;13.70;8.40;;;;;;;23.79;61.68;98058.30;105436;1255;61084;-22
2023/08/30 05:38:18;;;;;;;11.90;8.30;;;;;;;23.81;61.60;98056.69;105627;1260;75522;-22
2023/08/30 05:40:57;;;;;;;16.00;9.50;;;;;;;23.87;61.64;98056.80;105508;1254;77289;-22
2023/08/30 05:43:25;;;;;;;14.80;9.50;;;;;;;23.96;61.32;98059.10;105482;1254;75309;-23
2023/08/30 05:45:53;;;;;;;15.40;10.10;;;;;;;24.06;61.22;98058.41;105426;1259;61176;-22
2023/08/30 05:48:21;;;;;;;14.40;9.80;;;;;;;24.20;61.02;98058.08;105507;1254;61810;-22
2023/08/30 05:50:49;;;;;;;12.90;8.80;;;;;;;24.29;60.61;98056.44;105417;1254;75478;-22
2023/08/30 05:53:17;;;;;;;11.90;8.60;;;;;;;24.38;60.39;98058.66;105560;1254;74789;-22
2023/08/30 05:55:45;;;;;;;15.10;8.80;;;;;;;24.43;60.14;98057.05;105362;1259;76659;-22
2023/08/30 05:58:15;;;;;;;11.60;8.20;;;;;;;24.47;60.19;98055.10;105342;1257;62540;-22
2023/08/30 06:00:43;;;;;;;11.10;8.30;;;;;;;24.52;60.06;98056.45;105368;1254;62708;-22
2023/08/30 06:03:10;;;;;;;12.70;7.90;;;;;;;24.56;59.96;98058.86;105446;1259;73063;-22
2023/08/30 06:05:38;;;;;;;14.20;8.00;;;;;;;24.56;59.71;98058.02;105589;1254;76690;-22
2023/08/30 06:08:07;;;;;;;12.40;8.80;;;;;;;24.58;59.75;98055.59;105346;1259;71442;-22
2023/08/30 06:10:36;;;;;;;9.90;7.30;;;;;;;24.59;59.94;98059.55;105506;1254;61493;-22
2023/08/30 06:13:04;;;;;;;10.70;8.40;;;;;;;24.59;59.84;98056.67;105453;1254;61763;-22
2023/08/30 06:15:34;;;;;;;13.10;8.10;;;;;;;24.63;59.88;98058.88;105429;1254;75280;-21
2023/08/30 06:18:03;;;;;;;13.70;8.30;;;;;;;24.70;59.95;98054.41;105699;1254;74457;-21
2023/08/30 06:20:31;;;;;;;12.40;8.30;;;;;;;24.79;59.90;98050.27;105603;1254;75480;-22
2023/08/30 06:31:00;;;;;;;13.10;7.30;;;;;;;25.61;57.72;98047.41;102598;1290;614050;-22
2023/08/30 06:33:28;;;;;;;13.50;8.00;;;;;;;25.85;57.08;98047.38;105162;1264;61206;-21
2023/08/30 06:35:56;;;;;;;12.10;7.10;;;;;;;26.07;56.38;98048.56;105112;1269;62328;-21
2023/08/30 06:38:23;;;;;;;10.50;7.00;;;;;;;26.24;55.50;98048.77;104996;1264;73433;-22
2023/08/30 06:40:51;;;;;;;12.70;7.00;;;;;;;26.43;55.08;98050.48;104644;1264;75492;-23
2023/08/30 06:43:19;;;;;;;9.40;7.00;;;;;;;26.64;54.48;98052.10;102876;1264;3066228;-22
2023/08/30 06:45:46;;;;;;;9.70;7.10;;;;;;;26.83;53.60;98052.85;105156;1269;61212;-21
2023/08/30 06:48:14;;;;;;;12.50;6.70;;;;;;;27.00;52.92;98051.16;105112;1263;61176;-21
2023/08/30 06:50:42;;;;;;;10.00;6.40;;;;;;;27.14;52.50;98049.48;105153;1264;73636;-21
2023/08/30 06:53:09;;;;;;;10.90;6.50;;;;;;;27.31;52.47;98049.79;105211;1264;76127;-21
2023/08/30 06:55:37;;;;;;;12.60;6.40;;;;;;;27.49;52.11;98051.92;105092;1264;72400;-21
2023/08/30 06:58:04;;;;;;;9.00;6.50;;;;;;;27.69;51.34;98054.80;104942;1263;61160;-21
2023/08/30 07:00:32;;;;;;;10.20;6.50;;;;;;;27.91;51.00;98054.81;105066;1266;61791;-22
2023/08/30 07:02:59;;;;;;;12.20;7.00;;;;;;;28.09;50.40;98053.32;105180;1264;74572;-21
2023/08/30 07:05:27;;;;;;;17.10;7.00;;;;;;;28.19;49.61;98056.04;105232;1264;75601;-21
2023/08/30 07:07:54;;;;;;;11.90;6.80;;;;;;;28.27;49.59;98054.05;105238;1263;74010;-21
2023/08/30 07:10:22;;;;;;;8.60;6.40;;;;;;;28.42;49.16;98062.64;105207;1264;62974;-22
2023/08/30 07:12:49;;;;;;;9.00;6.50;;;;;;;28.59;48.99;98066.29;105238;1266;61856;-21
2023/08/30 07:15:17;;;;;;;9.40;6.60;;;;;;;28.73;48.03;98056.33;105244;1264;72778;-21
2023/08/30 07:17:44;;;;;;;11.60;6.60;;;;;;;28.82;47.72;98058.44;105221;1263;75766;-21
2023/08/30 07:20:15;;;;;;;12.10;6.80;;;;;;;28.83;47.30;98060.21;105214;1264;73963;-21
2023/08/30 07:22:42;;;;;;;10.80;6.90;;;;;;;28.86;47.62;98060.79;105241;1266;62371;-21
2023/08/30 07:25:10;;;;;;;7.50;6.50;;;;;;;29.03;47.58;98064.26;105220;1264;61402;-21
2023/08/30 07:27:38;;;;;;;11.20;7.60;;;;;;;29.15;47.29;98059.09;105252;1264;73467;-21
2023/08/30 07:30:07;;;;;;;11.40;7.50;;;;;;;29.23;47.11;98063.03;105061;1263;75939;-21
2023/08/30 07:32:36;;;;;;;12.40;7.10;;;;;;;29.36;46.95;98063.66;105021;1263;74051;-22
2023/08/30 07:35:04;;;;;;;8.80;7.20;;;;;;;29.41;46.32;98052.88;105207;1264;61605;-21
2023/08/30 07:37:31;;;;;;;11.60;6.60;;;;;;;29.39;46.54;98055.55;105081;1264;61199;-21
2023/08/30 07:39:59;;;;;;;13.30;7.20;;;;;;;29.41;46.41;98052.35;105825;1251;74491;-21
2023/08/30 07:42:26;;;;;;;11.60;7.90;;;;;;;29.43;46.17;98050.08;105916;1256;75933;-22
2023/08/30 07:44:54;;;;;;;10.70;8.00;;;;;;;29.51;46.03;98050.42;105757;1251;74287;-21
2023/08/30 07:47:21;;;;;;;13.50;8.10;;;;;;;29.59;45.85;98046.65;105983;1251;61046;-21
2023/08/30 07:49:48;;;;;;;12.10;8.50;;;;;;;29.65;45.39;98045.54;105970;1257;61568;-21
2023/08/30 07:52:15;;;;;;;15.80;8.70;;;;;;;29.69;45.65;98038.98;105971;1251;72892;-21
2023/08/30 07:54:48;;;;;;;10.50;7.80;;;;;;;29.80;44.98;98038.82;105914;1256;74735;-22
2023/08/30 07:57:16;;;;;;;10.20;7.00;;;;;;;29.85;45.08;98038.64;105915;1256;74041;-21
2023/08/30 07:59:43;;;;;;;11.00;7.70;;;;;;;29.93;45.07;98038.76;105817;1251;60940;-22
2023/08/30 08:02:10;;;;;;;9.20;7.00;;;;;;;30.01;44.74;98040.98;106012;1257;61833;-21
2023/08/30 08:04:38;;;;;;;11.60;7.00;;;;;;;30.14;44.69;98040.00;105975;1251;74305;-24
2023/08/30 08:07:06;;;;;;;11.00;7.60;;;;;;;30.26;44.79;98040.83;105636;1251;74365;-22
2023/08/30 08:09:33;;;;;;;11.20;7.60;;;;;;;30.39;44.24;98041.33;105982;1251;72664;-21
2023/08/30 08:12:01;;;;;;;10.70;7.70;;;;;;;30.45;44.27;98037.89;105815;1251;61776;-21
2023/08/30 08:14:29;;;;;;;18.10;10.20;;;;;;;30.48;44.08;98037.44;106032;1251;61068;-22
2023/08/30 08:16:56;;;;;;;15.10;9.30;;;;;;;30.47;43.72;98034.83;105991;1251;64600;-21
2023/08/30 08:19:23;;;;;;;9.90;7.30;;;;;;;30.55;44.14;98036.75;105959;1251;74368;-21
2023/08/30 08:21:56;;;;;;;12.30;7.50;;;;;;;30.73;44.31;98034.14;105986;1251;73554;-22
2023/08/30 08:24:23;;;;;;;12.30;7.50;;;;;;;31.00;44.02;98034.64;106004;1251;61022;-22
2023/08/30 08:26:51;;;;;;;11.70;7.50;;;;;;;31.30;43.21;98030.52;105743;1251;61745;-21
2023/08/30 08:29:19;;;;;;;16.90;7.30;;;;;;;31.36;43.01;98031.64;106037;1251;65980;-21
2023/08/30 08:31:46;;;;;;;11.30;6.90;;;;;;;31.45;42.93;98030.98;105929;1252;67382;-21
2023/08/30 08:34:13;;;;;;;8.80;6.90;;;;;;;31.60;42.81;98030.97;105931;1251;64132;-23
2023/08/30 08:36:42;;;;;;;10.10;6.60;;;;;;;31.81;42.68;98029.63;105888;1251;61004;-23
2023/08/30 08:39:10;;;;;;;11.70;6.40;;;;;;;31.85;42.25;98023.92;105757;1251;61067;-23
2023/08/30 08:41:41;;;;;;;7.90;6.00;;;;;;;31.81;42.06;98017.06;105985;1251;65936;-23
2023/08/30 08:44:30;;;;;;;9.50;6.10;;;;;;;31.84;42.39;98021.36;105564;1251;67363;-23
2023/08/30 08:46:58;;;;;;;10.80;6.20;;;;;;;31.98;42.56;98024.79;105675;1254;65420;-23
2023/08/30 08:49:30;;;;;;;8.00;5.70;;;;;;;32.05;42.15;98022.89;105588;1262;61381;-23
2023/08/30 08:51:58;;;;;;;9.90;6.50;;;;;;;32.06;41.98;98019.34;105698;1254;61166;-23
2023/08/30 08:54:25;;;;;;;13.00;7.80;;;;;;;31.90;42.31;98016.21;105691;1254;65995;-23
2023/08/30 08:56:53;;;;;;;9.30;6.40;;;;;;;31.60;43.06;98018.80;105493;1254;67055;-23
2023/08/30 08:59:21;;;;;;;11.30;6.50;;;;;;;31.52;43.75;98014.61;105566;1254;65471;-23
2023/08/30 09:01:49;;;;;;;13.80;8.30;;;;;;;31.80;43.49;98015.77;105627;1259;61147;-23
2023/08/30 09:04:16;;;;;;;11.40;6.50;;;;;;;31.96;42.72;98012.64;105525;1260;61237;-23
2023/08/30 09:06:44;;;;;;;9.80;6.90;;;;;;;32.08;42.38;98009.49;105653;1260;65699;-23
2023/08/30 09:09:11;;;;;;;12.20;6.90;;;;;;;31.97;41.98;98008.42;105609;1254;65675;-23
2023/08/30 09:11:39;;;;;;;11.30;6.90;;;;;;;31.91;42.36;98009.16;105542;1254;66013;-23
2023/08/30 09:14:19;;;;;;;10.90;6.70;;;;;;;32.02;41.30;98004.05;105601;1254;61223;-23
2023/08/30 09:16:56;;;;;;;9.90;6.70;;;;;;;31.73;41.65;97998.95;105652;1254;61337;-23
2023/08/30 09:19:24;;;;;;;8.90;6.20;;;;;;;31.63;41.58;97997.09;105746;1254;65160;-23
2023/08/30 09:21:52;;;;;;;7.60;6.30;;;;;;;31.76;41.08;97994.48;105705;1254;66028;-23
2023/08/30 09:24:20;;;;;;;7.40;5.30;;;;;;;31.78;41.13;97991.98;105688;1251;65589;-24
2023/08/30 09:26:49;;;;;;;9.40;5.70;;;;;;;31.67;40.92;97992.41;105896;1251;61058;-23
2023/08/30 09:29:17;;;;;;;14.60;6.50;;;;;;;31.45;41.15;97996.52;105759;1251;61154;-23
2023/08/30 09:31:45;;;;;;;10.60;5.60;;;;;;;31.33;41.71;97994.64;105939;1257;65717;-23
2023/08/30 09:34:13;;;;;;;13.40;7.00;;;;;;;31.27;41.36;97990.99;105753;1251;67340;-23
2023/08/30 09:36:41;;;;;;;7.50;5.50;;;;;;;31.36;41.89;97988.88;105963;1251;65610;-23
2023/08/30 09:39:11;;;;;;;7.90;5.60;;;;;;;31.68;41.17;97983.52;106005;1251;61004;-23
2023/08/30 09:41:47;;;;;;;7.70;5.30;;;;;;;31.88;40.57;97981.81;105840;1254;61115;-23
2023/08/30 09:44:20;;;;;;;5.80;4.70;;;;;;;32.26;39.56;97975.16;105730;1259;65988;-23
2023/08/30 09:46:52;;;;;;;9.30;5.20;;;;;;;32.59;38.96;97968.94;105903;1251;67146;-23
2023/08/30 09:49:21;;;;;;;;;;;;;;;32.59;38.90;97964.48;105766;1254;65809;-23
2023/08/30 09:51:51;;;;;;;11.80;4.70;;;;;;;32.81;39.24;97960.63;105959;1251;61048;-23
2023/08/30 09:54:20;;;;;;;6.40;4.60;;;;;;;33.36;38.07;97956.17;105760;1251;61172;-23
2023/08/30 09:57:06;;;;;;;10.80;5.80;;;;;;;33.63;37.26;97950.43;105958;1253;66003;-23
2023/08/30 09:59:33;;;;;;;10.50;6.20;;;;;;;33.39;36.72;97946.52;105918;1251;74376;-23
2023/08/30 10:02:01;;;;;;;9.30;4.90;;;;;;;33.18;36.78;97943.55;105985;1254;65383;-24
2023/08/30 10:04:29;;;;;;;9.30;6.00;;;;;;;32.93;37.57;97940.55;105740;1251;61045;-24
2023/08/30 10:06:57;;;;;;;8.90;5.10;;;;;;;33.26;37.13;97937.88;105780;1251;61227;-23
2023/08/30 10:09:25;;;;;;;7.80;4.90;;;;;;;33.92;36.08;97928.92;105936;1256;65557;-23
2023/08/30 10:11:53;;;;;;;5.10;4.60;;;;;;;34.64;34.72;97921.64;105917;1251;66605;-23
2023/08/30 10:14:20;;;;;;;7.40;4.50;;;;;;;35.13;33.86;97923.81;106011;1251;65406;-24
2023/08/30 10:16:48;;;;;;;10.50;4.90;;;;;;;35.11;33.78;97922.30;105682;1251;60998;-24
2023/08/30 10:19:36;;;;;;;7.90;4.90;;;;;;;35.10;33.93;97920.23;105692;1251;61115;-23
2023/08/30 10:22:08;;;;;;;6.60;4.80;;;;;;;35.05;33.64;97925.45;105879;1251;65720;-23
2023/08/30 10:24:56;;;;;;;8.10;4.80;;;;;;;35.05;33.57;97924.77;105542;1251;67156;-23
2023/08/30 10:27:41;;;;;;;11.30;5.20;;;;;;;34.57;33.06;97919.33;105956;1251;65060;-23
2023/08/30 10:30:09;;;;;;;11.80;5.30;;;;;;;34.09;33.86;97909.85;105689;1251;61063;-23
2023/08/30 10:32:41;;;;;;;11.80;5.50;;;;;;;33.87;34.64;97907.23;105838;1257;61096;-23
2023/08/30 10:35:15;;;;;;;6.00;4.60;;;;;;;33.87;35.09;97898.86;105650;1251;64463;-24
2023/08/30 10:37:55;;;;;;;25.40;5.60;;;;;;;33.81;34.88;97891.30;105689;1252;65967;-23
2023/08/30 10:40:23;;;;;;;6.60;4.60;;;;;;;33.54;35.13;97886.53;105767;1251;66005;-23
2023/08/30 10:43:03;;;;;;;7.60;5.20;;;;;;;33.25;35.58;97876.27;105954;1251;61047;-23
2023/08/30 10:45:32;;;;;;;8.30;5.00;;;;;;;32.95;35.69;97873.88;105576;1251;61752;-24
2023/08/30 10:47:59;;;;;;;9.20;5.00;;;;;;;32.75;35.83;97877.52;105780;1251;65246;-23
2023/08/30 10:50:31;;;;;;;7.10;5.00;;;;;;;32.53;36.61;97882.42;105706;1251;67127;-24
2023/08/30 10:52:59;;;;;;;5.30;4.80;;;;;;;32.43;36.96;97882.41;105698;1251;64571;-23
2023/08/30 10:55:27;;;;;;;7.00;4.10;;;;;;;32.38;36.76;97882.33;105969;1251;61131;-23
2023/08/30 10:58:02;;;;;;;8.80;4.30;;;;;;;32.29;36.78;97880.95;105988;1256;61093;-23
2023/08/30 11:00:30;;;;;;;8.20;5.10;;;;;;;32.16;36.85;97871.11;105930;1257;65195;-24
2023/08/30 11:02:57;;;;;;;9.80;5.20;;;;;;;32.02;36.99;97865.48;105724;1251;65760;-23
2023/08/30 11:05:26;;;;;;;11.30;5.00;;;;;;;31.96;37.28;97858.73;105973;1251;64794;-23
2023/08/30 11:07:54;;;;;;;6.30;4.60;;;;;;;31.90;37.55;97857.23;105763;1251;61061;-23
2023/08/30 11:10:21;;;;;;;10.40;4.70;;;;;;;31.84;37.73;97861.73;105972;1251;61108;-23
2023/08/30 11:12:56;;;;;;;7.60;4.30;;;;;;;31.75;38.07;97869.59;105698;1251;66556;-23
2023/08/30 11:15:25;;;;;;;7.70;4.80;;;;;;;31.64;37.76;97873.77;105901;1251;65793;-23
2023/08/30 11:17:52;;;;;;;6.90;4.30;;;;;;;31.48;37.79;97877.44;105714;1259;64199;-23
2023/08/30 11:20:20;;;;;;;8.00;5.20;;;;;;;31.32;37.97;97878.63;105728;1251;60980;-23
2023/08/30 11:22:48;;;;;;;6.60;4.50;;;;;;;31.19;38.26;97877.14;106055;1251;61112;-23
2023/08/30 11:25:16;;;;;;;5.30;3.90;;;;;;;31.11;38.26;97864.76;105888;1254;66182;-23
2023/08/30 11:27:45;;;;;;;8.70;4.70;;;;;;;31.03;38.67;97860.52;105798;1257;67786;-23
2023/08/30 11:30:13;;;;;;;6.60;4.40;;;;;;;30.97;38.94;97850.63;105972;1257;65793;-23
2023/08/30 11:32:44;;;;;;;8.30;5.00;;;;;;;30.88;39.20;97840.49;105852;1251;61049;-23
2023/08/30 11:35:11;;;;;;;5.70;4.70;;;;;;;30.80;39.14;97837.70;105976;1251;61099;-23
2023/08/30 11:37:40;;;;;;;11.40;5.20;;;;;;;30.69;39.25;97834.38;105986;1256;65058;-23
2023/08/30 11:40:08;;;;;;;4.80;4.20;;;;;;;30.61;39.66;97838.18;105778;1251;67477;-23
2023/08/30 11:42:35;;;;;;;9.70;4.70;;;;;;;30.55;39.75;97842.25;105683;1251;64592;-23